sensor_id;sensor_type;location;lat;lon;timestamp;temperature;humidity
57434;DHT22;43277;52.672;6.984;2023-07-24T00:00:14;18.70;99.90
57434;DHT22;43277;52.672;6.984;2023-07-24T00:02:40;18.60;99.90
57434;DHT22;43277;52.672;6.984;2023-07-24T00:05:05;18.70;99.90
57434;DHT22;43277;52.672;6.984;2023-07-24T00:07:31;18.60;99.90
57434;DHT22;43277;52.672;6.984;2023-07-24T00:09:57;18.70;99.90
57434;DHT22;43277;52.672;6.984;2023-07-24T00:12:23;18.60;99.90
57434;DHT22;43277;52.672;6.984;2023-07-24T00:14:48;18.60;99.90
57434;DHT22;43277;52.672;6.984;2023-07-24T00:17:14;18.60;99.90
57434;DHT22;43277;52.672;6.984;2023-07-24T00:19:40;18.70;99.90
57434;DHT22;43277;52.672;6.984;2023-07-24T00:22:05;18.70;99.90
57434;DHT22;43277;52.672;6.984;2023-07-24T00:24:31;18.70;99.90
57434;DHT22;43277;52.672;6.984;2023-07-24T00:26:57;18.70;99.90
57434;DHT22;43277;52.672;6.984;2023-07-24T00:29:23;18.70;99.90
57434;DHT22;43277;52.672;6.984;2023-07-24T00:31:49;18.70;99.90
57434;DHT22;43277;52.672;6.984;2023-07-24T00:34:14;18.70;99.90
57434;DHT22;43277;52.672;6.984;2023-07-24T00:36:40;18.70;99.90
57434;DHT22;43277;52.672;6.984;2023-07-24T00:39:06;18.70;99.90
57434;DHT22;43277;52.672;6.984;2023-07-24T00:41:32;18.70;99.90
57434;DHT22;43277;52.672;6.984;2023-07-24T00:43:57;18.60;99.90
57434;DHT22;43277;52.672;6.984;2023-07-24T00:46:23;18.60;99.90
57434;DHT22;43277;52.672;6.984;2023-07-24T00:48:50;18.50;99.90
57434;DHT22;43277;52.672;6.984;2023-07-24T00:51:17;18.50;99.90
57434;DHT22;43277;52.672;6.984;2023-07-24T00:53:45;18.40;99.90
57434;DHT22;43277;52.672;6.984;2023-07-24T00:56:13;18.50;99.90
57434;DHT22;43277;52.672;6.984;2023-07-24T00:58:39;18.50;99.90
57434;DHT22;43277;52.672;6.984;2023-07-24T01:01:05;18.50;99.90
57434;DHT22;43277;52.672;6.984;2023-07-24T01:03:35;18.40;99.90
57434;DHT22;43277;52.672;6.984;2023-07-24T01:06:04;18.40;99.90
57434;DHT22;43277;52.672;6.984;2023-07-24T01:08:29;18.40;99.90
57434;DHT22;43277;52.672;6.984;2023-07-24T01:13:44;18.40;99.90
57434;DHT22;43277;52.672;6.984;2023-07-24T01:16:14;18.40;99.90
57434;DHT22;43277;52.672;6.984;2023-07-24T01:18:45;18.30;99.90
57434;DHT22;43277;52.672;6.984;2023-07-24T01:21:12;18.40;99.90
57434;DHT22;43277;52.672;6.984;2023-07-24T01:23:59;18.40;99.90
57434;DHT22;43277;52.672;6.984;2023-07-24T01:26:28;18.40;99.90
57434;DHT22;43277;52.672;6.984;2023-07-24T01:28:54;18.30;99.90
57434;DHT22;43277;52.672;6.984;2023-07-24T01:31:20;18.30;99.90
57434;DHT22;43277;52.672;6.984;2023-07-24T01:33:45;18.20;99.90
57434;DHT22;43277;52.672;6.984;2023-07-24T01:36:12;18.20;99.90
57434;DHT22;43277;52.672;6.984;2023-07-24T01:38:38;18.20;99.90
57434;DHT22;43277;52.672;6.984;2023-07-24T01:41:04;18.20;99.90
57434;DHT22;43277;52.672;6.984;2023-07-24T01:43:30;18.30;99.90
57434;DHT22;43277;52.672;6.984;2023-07-24T01:45:57;18.20;99.90
57434;DHT22;43277;52.672;6.984;2023-07-24T01:48:23;18.10;99.90
57434;DHT22;43277;52.672;6.984;2023-07-24T01:50:49;18.10;99.90
57434;DHT22;43277;52.672;6.984;2023-07-24T01:53:15;18.00;99.90
57434;DHT22;43277;52.672;6.984;2023-07-24T01:55:41;18.00;99.90
57434;DHT22;43277;52.672;6.984;2023-07-24T01:58:06;18.00;99.90
57434;DHT22;43277;52.672;6.984;2023-07-24T02:00:32;18.00;99.90
57434;DHT22;43277;52.672;6.984;2023-07-24T02:02:58;17.90;99.90
57434;DHT22;43277;52.672;6.984;2023-07-24T02:05:24;17.80;99.90
57434;DHT22;43277;52.672;6.984;2023-07-24T02:07:49;17.70;99.90
57434;DHT22;43277;52.672;6.984;2023-07-24T02:10:15;17.80;99.90
57434;DHT22;43277;52.672;6.984;2023-07-24T02:12:40;17.70;99.90
57434;DHT22;43277;52.672;6.984;2023-07-24T02:15:07;17.70;99.90
57434;DHT22;43277;52.672;6.984;2023-07-24T02:17:32;17.80;99.90
57434;DHT22;43277;52.672;6.984;2023-07-24T02:19:58;17.70;99.90
57434;DHT22;43277;52.672;6.984;2023-07-24T02:22:24;17.70;99.90
57434;DHT22;43277;52.672;6.984;2023-07-24T02:24:50;17.70;99.90
57434;DHT22;43277;52.672;6.984;2023-07-24T02:27:29;17.60;99.90
57434;DHT22;43277;52.672;6.984;2023-07-24T02:29:57;17.60;99.90
57434;DHT22;43277;52.672;6.984;2023-07-24T02:32:23;17.50;99.90
57434;DHT22;43277;52.672;6.984;2023-07-24T02:34:52;17.70;99.90
57434;DHT22;43277;52.672;6.984;2023-07-24T02:37:21;17.70;99.90
57434;DHT22;43277;52.672;6.984;2023-07-24T02:39:49;17.70;99.90
57434;DHT22;43277;52.672;6.984;2023-07-24T02:42:14;17.60;99.90
57434;DHT22;43277;52.672;6.984;2023-07-24T02:45:00;17.60;99.90
57434;DHT22;43277;52.672;6.984;2023-07-24T02:47:29;17.60;99.90
57434;DHT22;43277;52.672;6.984;2023-07-24T02:49:54;17.50;99.90
57434;DHT22;43277;52.672;6.984;2023-07-24T02:52:20;17.60;99.90
57434;DHT22;43277;52.672;6.984;2023-07-24T02:54:51;17.60;99.90
57434;DHT22;43277;52.672;6.984;2023-07-24T02:57:17;17.60;99.90
57434;DHT22;43277;52.672;6.984;2023-07-24T02:59:50;17.60;99.90
57434;DHT22;43277;52.672;6.984;2023-07-24T03:02:15;17.50;99.90
57434;DHT22;43277;52.672;6.984;2023-07-24T03:04:43;17.50;99.90
57434;DHT22;43277;52.672;6.984;2023-07-24T03:07:14;17.40;99.90
57434;DHT22;43277;52.672;6.984;2023-07-24T03:09:50;17.40;99.90
57434;DHT22;43277;52.672;6.984;2023-07-24T03:12:16;17.50;99.90
57434;DHT22;43277;52.672;6.984;2023-07-24T03:14:42;17.50;99.90
57434;DHT22;43277;52.672;6.984;2023-07-24T03:17:07;17.50;99.90
57434;DHT22;43277;52.672;6.984;2023-07-24T03:19:33;17.50;99.90
57434;DHT22;43277;52.672;6.984;2023-07-24T03:21:58;17.60;99.90
57434;DHT22;43277;52.672;6.984;2023-07-24T03:24:24;17.50;99.90
57434;DHT22;43277;52.672;6.984;2023-07-24T03:26:52;17.60;99.90
57434;DHT22;43277;52.672;6.984;2023-07-24T03:29:18;17.60;99.90
57434;DHT22;43277;52.672;6.984;2023-07-24T03:31:43;17.60;99.90
57434;DHT22;43277;52.672;6.984;2023-07-24T03:34:09;17.60;99.90
57434;DHT22;43277;52.672;6.984;2023-07-24T03:36:34;17.60;99.90
57434;DHT22;43277;52.672;6.984;2023-07-24T03:39:01;17.70;99.90
57434;DHT22;43277;52.672;6.984;2023-07-24T03:41:26;17.70;99.90
57434;DHT22;43277;52.672;6.984;2023-07-24T03:43:52;17.80;99.90
57434;DHT22;43277;52.672;6.984;2023-07-24T03:46:18;17.70;99.90
57434;DHT22;43277;52.672;6.984;2023-07-24T03:48:43;17.60;99.90
57434;DHT22;43277;52.672;6.984;2023-07-24T03:51:09;17.60;99.90
57434;DHT22;43277;52.672;6.984;2023-07-24T03:53:34;17.60;99.90
57434;DHT22;43277;52.672;6.984;2023-07-24T03:56:00;17.60;99.90
57434;DHT22;43277;52.672;6.984;2023-07-24T03:58:26;17.60;99.90
57434;DHT22;43277;52.672;6.984;2023-07-24T04:00:51;17.70;99.90
57434;DHT22;43277;52.672;6.984;2023-07-24T04:03:17;17.60;99.90
57434;DHT22;43277;52.672;6.984;2023-07-24T04:05:43;17.70;99.90
57434;DHT22;43277;52.672;6.984;2023-07-24T04:08:09;17.60;99.90
57434;DHT22;43277;52.672;6.984;2023-07-24T04:10:35;17.70;99.90
57434;DHT22;43277;52.672;6.984;2023-07-24T04:13:00;17.70;99.90
57434;DHT22;43277;52.672;6.984;2023-07-24T04:15:26;17.60;99.90
57434;DHT22;43277;52.672;6.984;2023-07-24T04:17:51;17.60;99.90
57434;DHT22;43277;52.672;6.984;2023-07-24T04:20:17;17.60;99.90
57434;DHT22;43277;52.672;6.984;2023-07-24T04:22:43;17.60;99.90
57434;DHT22;43277;52.672;6.984;2023-07-24T04:25:08;17.60;99.90
57434;DHT22;43277;52.672;6.984;2023-07-24T04:27:34;17.60;99.90
57434;DHT22;43277;52.672;6.984;2023-07-24T04:30:00;17.60;99.90
57434;DHT22;43277;52.672;6.984;2023-07-24T04:32:28;17.60;99.90
57434;DHT22;43277;52.672;6.984;2023-07-24T04:34:54;17.70;99.90
57434;DHT22;43277;52.672;6.984;2023-07-24T04:37:20;17.70;99.90
57434;DHT22;43277;52.672;6.984;2023-07-24T04:39:45;17.70;99.90
57434;DHT22;43277;52.672;6.984;2023-07-24T04:42:11;17.70;99.90
57434;DHT22;43277;52.672;6.984;2023-07-24T04:44:36;17.70;99.90
57434;DHT22;43277;52.672;6.984;2023-07-24T04:47:02;17.70;99.90
57434;DHT22;43277;52.672;6.984;2023-07-24T04:49:31;17.70;99.90
57434;DHT22;43277;52.672;6.984;2023-07-24T04:51:58;17.70;99.90
57434;DHT22;43277;52.672;6.984;2023-07-24T04:54:24;17.60;99.90
57434;DHT22;43277;52.672;6.984;2023-07-24T04:56:50;17.70;99.90
57434;DHT22;43277;52.672;6.984;2023-07-24T04:59:15;17.70;99.90
57434;DHT22;43277;52.672;6.984;2023-07-24T05:01:41;17.60;99.90
57434;DHT22;43277;52.672;6.984;2023-07-24T05:04:07;17.70;99.90
57434;DHT22;43277;52.672;6.984;2023-07-24T05:06:32;17.60;99.90
57434;DHT22;43277;52.672;6.984;2023-07-24T05:08:58;17.70;99.90
57434;DHT22;43277;52.672;6.984;2023-07-24T05:11:24;17.70;99.90
57434;DHT22;43277;52.672;6.984;2023-07-24T05:13:49;17.70;99.90
57434;DHT22;43277;52.672;6.984;2023-07-24T05:16:15;17.70;99.90
57434;DHT22;43277;52.672;6.984;2023-07-24T05:18:40;17.70;99.90
57434;DHT22;43277;52.672;6.984;2023-07-24T05:21:07;17.80;99.90
57434;DHT22;43277;52.672;6.984;2023-07-24T05:23:32;17.80;99.90
57434;DHT22;43277;52.672;6.984;2023-07-24T05:25:59;17.70;99.90
57434;DHT22;43277;52.672;6.984;2023-07-24T05:28:26;17.70;99.90
57434;DHT22;43277;52.672;6.984;2023-07-24T05:30:52;17.70;99.90
57434;DHT22;43277;52.672;6.984;2023-07-24T05:33:17;17.80;99.90
57434;DHT22;43277;52.672;6.984;2023-07-24T05:35:43;17.70;99.90
57434;DHT22;43277;52.672;6.984;2023-07-24T05:38:09;17.70;99.90
57434;DHT22;43277;52.672;6.984;2023-07-24T05:40:35;17.70;99.90
57434;DHT22;43277;52.672;6.984;2023-07-24T05:43:00;17.70;99.90
57434;DHT22;43277;52.672;6.984;2023-07-24T05:45:29;17.70;99.90
57434;DHT22;43277;52.672;6.984;2023-07-24T05:47:55;17.70;99.90
57434;DHT22;43277;52.672;6.984;2023-07-24T05:50:20;17.70;99.90
57434;DHT22;43277;52.672;6.984;2023-07-24T05:52:46;17.70;99.90
57434;DHT22;43277;52.672;6.984;2023-07-24T05:55:12;17.70;99.90
57434;DHT22;43277;52.672;6.984;2023-07-24T05:57:37;17.70;99.90
57434;DHT22;43277;52.672;6.984;2023-07-24T06:00:04;17.80;99.90
57434;DHT22;43277;52.672;6.984;2023-07-24T06:02:30;17.80;99.90
57434;DHT22;43277;52.672;6.984;2023-07-24T06:04:56;17.90;99.90
57434;DHT22;43277;52.672;6.984;2023-07-24T06:07:21;18.00;99.90
57434;DHT22;43277;52.672;6.984;2023-07-24T06:09:47;17.90;99.90
57434;DHT22;43277;52.672;6.984;2023-07-24T06:12:13;18.00;99.90
57434;DHT22;43277;52.672;6.984;2023-07-24T06:14:38;18.10;99.90
57434;DHT22;43277;52.672;6.984;2023-07-24T06:17:04;18.10;99.90
57434;DHT22;43277;52.672;6.984;2023-07-24T06:19:30;18.20;99.90
57434;DHT22;43277;52.672;6.984;2023-07-24T06:21:56;18.20;99.90
57434;DHT22;43277;52.672;6.984;2023-07-24T06:24:21;18.20;99.90
57434;DHT22;43277;52.672;6.984;2023-07-24T06:26:49;18.20;99.90
57434;DHT22;43277;52.672;6.984;2023-07-24T06:29:15;18.30;99.90
57434;DHT22;43277;52.672;6.984;2023-07-24T06:31:41;18.30;99.90
57434;DHT22;43277;52.672;6.984;2023-07-24T06:34:06;18.30;99.90
57434;DHT22;43277;52.672;6.984;2023-07-24T06:36:32;18.40;99.90
57434;DHT22;43277;52.672;6.984;2023-07-24T06:38:58;18.40;99.90
57434;DHT22;43277;52.672;6.984;2023-07-24T06:41:23;18.40;99.90
57434;DHT22;43277;52.672;6.984;2023-07-24T06:43:50;18.50;99.90
57434;DHT22;43277;52.672;6.984;2023-07-24T06:46:16;18.60;99.90
57434;DHT22;43277;52.672;6.984;2023-07-24T06:48:42;18.60;99.90
57434;DHT22;43277;52.672;6.984;2023-07-24T06:51:07;18.70;99.90
57434;DHT22;43277;52.672;6.984;2023-07-24T06:53:33;18.90;99.90
57434;DHT22;43277;52.672;6.984;2023-07-24T06:55:58;19.10;99.90
57434;DHT22;43277;52.672;6.984;2023-07-24T06:58:24;19.00;99.90
57434;DHT22;43277;52.672;6.984;2023-07-24T07:00:50;19.10;99.90
57434;DHT22;43277;52.672;6.984;2023-07-24T07:03:15;19.10;99.90
57434;DHT22;43277;52.672;6.984;2023-07-24T07:05:41;19.10;99.90
57434;DHT22;43277;52.672;6.984;2023-07-24T07:08:07;19.00;99.90
57434;DHT22;43277;52.672;6.984;2023-07-24T07:10:32;19.10;99.90
57434;DHT22;43277;52.672;6.984;2023-07-24T07:12:58;19.10;99.90
57434;DHT22;43277;52.672;6.984;2023-07-24T07:15:24;19.20;99.90
57434;DHT22;43277;52.672;6.984;2023-07-24T07:17:49;19.10;99.90
57434;DHT22;43277;52.672;6.984;2023-07-24T07:20:15;19.10;99.90
57434;DHT22;43277;52.672;6.984;2023-07-24T07:22:41;19.10;99.90
57434;DHT22;43277;52.672;6.984;2023-07-24T07:25:06;19.10;99.90
57434;DHT22;43277;52.672;6.984;2023-07-24T07:27:32;19.10;99.90
57434;DHT22;43277;52.672;6.984;2023-07-24T07:29:58;19.00;99.90
57434;DHT22;43277;52.672;6.984;2023-07-24T07:32:23;19.00;99.90
57434;DHT22;43277;52.672;6.984;2023-07-24T07:34:50;19.00;99.90
57434;DHT22;43277;52.672;6.984;2023-07-24T07:37:19;19.00;99.90
57434;DHT22;43277;52.672;6.984;2023-07-24T07:39:44;19.00;99.90
57434;DHT22;43277;52.672;6.984;2023-07-24T07:42:10;19.10;99.90
57434;DHT22;43277;52.672;6.984;2023-07-24T07:44:38;19.10;99.90
57434;DHT22;43277;52.672;6.984;2023-07-24T07:47:03;19.10;99.90
57434;DHT22;43277;52.672;6.984;2023-07-24T07:49:31;19.20;99.90
57434;DHT22;43277;52.672;6.984;2023-07-24T07:51:57;19.30;99.90
57434;DHT22;43277;52.672;6.984;2023-07-24T07:54:22;19.40;99.90
57434;DHT22;43277;52.672;6.984;2023-07-24T07:56:48;19.50;99.90
57434;DHT22;43277;52.672;6.984;2023-07-24T07:59:13;19.50;99.90
57434;DHT22;43277;52.672;6.984;2023-07-24T08:01:39;19.60;99.90
57434;DHT22;43277;52.672;6.984;2023-07-24T08:04:05;19.60;99.90
57434;DHT22;43277;52.672;6.984;2023-07-24T08:06:31;19.50;99.90
57434;DHT22;43277;52.672;6.984;2023-07-24T08:08:56;19.40;99.90
57434;DHT22;43277;52.672;6.984;2023-07-24T08:11:23;19.30;99.90
57434;DHT22;43277;52.672;6.984;2023-07-24T08:13:49;19.20;99.90
57434;DHT22;43277;52.672;6.984;2023-07-24T08:16:15;19.20;99.90
57434;DHT22;43277;52.672;6.984;2023-07-24T08:18:47;19.30;99.90
57434;DHT22;43277;52.672;6.984;2023-07-24T08:21:15;19.50;99.90
57434;DHT22;43277;52.672;6.984;2023-07-24T08:23:41;19.60;99.90
57434;DHT22;43277;52.672;6.984;2023-07-24T08:26:07;19.60;99.90
57434;DHT22;43277;52.672;6.984;2023-07-24T08:28:33;19.60;99.90
57434;DHT22;43277;52.672;6.984;2023-07-24T08:31:02;19.60;99.90
57434;DHT22;43277;52.672;6.984;2023-07-24T08:33:28;19.60;99.90
57434;DHT22;43277;52.672;6.984;2023-07-24T08:36:05;19.60;99.90
57434;DHT22;43277;52.672;6.984;2023-07-24T08:38:32;19.80;99.90
57434;DHT22;43277;52.672;6.984;2023-07-24T08:41:11;20.00;99.90
57434;DHT22;43277;52.672;6.984;2023-07-24T08:43:38;19.90;99.90
57434;DHT22;43277;52.672;6.984;2023-07-24T08:46:05;20.00;99.90
57434;DHT22;43277;52.672;6.984;2023-07-24T08:48:36;20.00;99.90
57434;DHT22;43277;52.672;6.984;2023-07-24T08:51:09;20.00;99.90
57434;DHT22;43277;52.672;6.984;2023-07-24T08:53:37;20.00;99.90
57434;DHT22;43277;52.672;6.984;2023-07-24T08:56:07;20.20;99.90
57434;DHT22;43277;52.672;6.984;2023-07-24T08:58:34;20.20;99.90
57434;DHT22;43277;52.672;6.984;2023-07-24T09:01:01;20.20;99.90
57434;DHT22;43277;52.672;6.984;2023-07-24T09:03:27;20.30;99.90
57434;DHT22;43277;52.672;6.984;2023-07-24T09:05:53;20.40;99.90
57434;DHT22;43277;52.672;6.984;2023-07-24T09:08:33;20.40;99.90
57434;DHT22;43277;52.672;6.984;2023-07-24T09:11:00;20.40;99.90
57434;DHT22;43277;52.672;6.984;2023-07-24T09:13:26;20.50;99.90
57434;DHT22;43277;52.672;6.984;2023-07-24T09:15:52;20.60;99.90
57434;DHT22;43277;52.672;6.984;2023-07-24T09:18:18;20.80;99.90
57434;DHT22;43277;52.672;6.984;2023-07-24T09:20:44;20.90;99.90
57434;DHT22;43277;52.672;6.984;2023-07-24T09:23:12;21.10;99.90
57434;DHT22;43277;52.672;6.984;2023-07-24T09:25:39;21.20;99.90
57434;DHT22;43277;52.672;6.984;2023-07-24T09:28:12;21.30;99.90
57434;DHT22;43277;52.672;6.984;2023-07-24T09:30:39;21.30;99.90
57434;DHT22;43277;52.672;6.984;2023-07-24T09:33:05;21.20;99.90
57434;DHT22;43277;52.672;6.984;2023-07-24T09:35:31;21.10;99.90
57434;DHT22;43277;52.672;6.984;2023-07-24T09:38:07;21.10;99.90
57434;DHT22;43277;52.672;6.984;2023-07-24T09:40:40;21.20;99.90
57434;DHT22;43277;52.672;6.984;2023-07-24T09:43:25;21.40;99.90
57434;DHT22;43277;52.672;6.984;2023-07-24T09:45:53;21.60;99.90
57434;DHT22;43277;52.672;6.984;2023-07-24T09:48:21;21.90;99.90
57434;DHT22;43277;52.672;6.984;2023-07-24T09:50:48;22.00;99.90
57434;DHT22;43277;52.672;6.984;2023-07-24T09:55:56;22.40;99.90
57434;DHT22;43277;52.672;6.984;2023-07-24T09:58:24;22.50;99.90
57434;DHT22;43277;52.672;6.984;2023-07-24T10:00:50;22.40;99.90
57434;DHT22;43277;52.672;6.984;2023-07-24T10:03:16;22.40;99.90
57434;DHT22;43277;52.672;6.984;2023-07-24T10:05:44;22.30;99.90
57434;DHT22;43277;52.672;6.984;2023-07-24T10:08:10;22.40;99.90
57434;DHT22;43277;52.672;6.984;2023-07-24T10:10:38;22.40;99.90
57434;DHT22;43277;52.672;6.984;2023-07-24T10:13:04;22.40;99.90
57434;DHT22;43277;52.672;6.984;2023-07-24T10:15:31;22.40;99.90
57434;DHT22;43277;52.672;6.984;2023-07-24T10:18:02;22.30;99.90
57434;DHT22;43277;52.672;6.984;2023-07-24T10:20:36;22.20;99.90
57434;DHT22;43277;52.672;6.984;2023-07-24T10:23:06;22.10;99.90
57434;DHT22;43277;52.672;6.984;2023-07-24T10:25:33;22.00;99.90
57434;DHT22;43277;52.672;6.984;2023-07-24T10:28:09;22.10;99.90
57434;DHT22;43277;52.672;6.984;2023-07-24T10:30:39;22.20;99.90
57434;DHT22;43277;52.672;6.984;2023-07-24T10:33:09;22.60;99.90
57434;DHT22;43277;52.672;6.984;2023-07-24T10:35:47;22.70;99.90
57434;DHT22;43277;52.672;6.984;2023-07-24T10:38:15;22.80;99.90
57434;DHT22;43277;52.672;6.984;2023-07-24T10:40:43;22.80;99.90
57434;DHT22;43277;52.672;6.984;2023-07-24T10:43:13;22.90;99.90
57434;DHT22;43277;52.672;6.984;2023-07-24T10:45:46;23.10;99.90
57434;DHT22;43277;52.672;6.984;2023-07-24T10:48:12;23.30;99.90
57434;DHT22;43277;52.672;6.984;2023-07-24T10:50:42;23.40;99.90
57434;DHT22;43277;52.672;6.984;2023-07-24T10:53:09;23.50;99.10
57434;DHT22;43277;52.672;6.984;2023-07-24T10:55:35;23.50;99.90
57434;DHT22;43277;52.672;6.984;2023-07-24T10:58:01;23.60;99.60
57434;DHT22;43277;52.672;6.984;2023-07-24T11:00:27;23.70;99.90
57434;DHT22;43277;52.672;6.984;2023-07-24T11:02:54;23.90;99.90
57434;DHT22;43277;52.672;6.984;2023-07-24T11:05:21;24.00;99.60
57434;DHT22;43277;52.672;6.984;2023-07-24T11:07:50;24.10;99.90
57434;DHT22;43277;52.672;6.984;2023-07-24T11:10:20;24.20;97.20
57434;DHT22;43277;52.672;6.984;2023-07-24T11:12:46;24.10;96.70
57434;DHT22;43277;52.672;6.984;2023-07-24T11:15:13;23.80;98.10
57434;DHT22;43277;52.672;6.984;2023-07-24T11:17:41;23.70;97.80
57434;DHT22;43277;52.672;6.984;2023-07-24T11:20:15;23.70;97.60
57434;DHT22;43277;52.672;6.984;2023-07-24T11:22:43;23.70;97.80
57434;DHT22;43277;52.672;6.984;2023-07-24T11:25:10;23.80;98.30
57434;DHT22;43277;52.672;6.984;2023-07-24T11:27:43;24.00;97.80
57434;DHT22;43277;52.672;6.984;2023-07-24T11:30:12;24.00;97.40
57434;DHT22;43277;52.672;6.984;2023-07-24T11:32:39;23.90;98.20
57434;DHT22;43277;52.672;6.984;2023-07-24T11:35:06;23.90;97.50
57434;DHT22;43277;52.672;6.984;2023-07-24T11:37:34;23.80;98.80
57434;DHT22;43277;52.672;6.984;2023-07-24T11:40:00;23.80;98.60
57434;DHT22;43277;52.672;6.984;2023-07-24T11:42:30;23.70;98.30
57434;DHT22;43277;52.672;6.984;2023-07-24T11:44:56;23.60;98.90
57434;DHT22;43277;52.672;6.984;2023-07-24T11:47:25;23.40;99.90
57434;DHT22;43277;52.672;6.984;2023-07-24T11:50:01;23.50;99.90
57434;DHT22;43277;52.672;6.984;2023-07-24T11:52:50;23.50;99.50
57434;DHT22;43277;52.672;6.984;2023-07-24T11:55:30;23.40;99.20
57434;DHT22;43277;52.672;6.984;2023-07-24T11:57:57;23.40;99.90
57434;DHT22;43277;52.672;6.984;2023-07-24T12:00:23;23.40;99.30
57434;DHT22;43277;52.672;6.984;2023-07-24T12:02:50;23.30;99.90
57434;DHT22;43277;52.672;6.984;2023-07-24T12:05:16;23.40;99.90
57434;DHT22;43277;52.672;6.984;2023-07-24T12:07:43;23.30;99.90
57434;DHT22;43277;52.672;6.984;2023-07-24T12:10:13;23.30;99.90
57434;DHT22;43277;52.672;6.984;2023-07-24T12:15:05;23.10;99.60
57434;DHT22;43277;52.672;6.984;2023-07-24T12:17:31;22.90;99.90
57434;DHT22;43277;52.672;6.984;2023-07-24T12:19:57;22.90;99.90
57434;DHT22;43277;52.672;6.984;2023-07-24T12:22:22;22.90;99.90
57434;DHT22;43277;52.672;6.984;2023-07-24T12:24:48;22.80;99.90
57434;DHT22;43277;52.672;6.984;2023-07-24T12:27:14;22.70;99.90
57434;DHT22;43277;52.672;6.984;2023-07-24T12:29:39;22.70;99.90
57434;DHT22;43277;52.672;6.984;2023-07-24T12:32:05;22.60;99.90
57434;DHT22;43277;52.672;6.984;2023-07-24T12:34:31;22.70;99.90
57434;DHT22;43277;52.672;6.984;2023-07-24T12:36:56;22.70;99.90
57434;DHT22;43277;52.672;6.984;2023-07-24T12:39:22;22.70;99.90
57434;DHT22;43277;52.672;6.984;2023-07-24T12:41:48;22.90;99.90
57434;DHT22;43277;52.672;6.984;2023-07-24T12:44:13;22.80;99.90
57434;DHT22;43277;52.672;6.984;2023-07-24T12:46:39;22.80;99.90
57434;DHT22;43277;52.672;6.984;2023-07-24T12:49:05;22.90;99.90
57434;DHT22;43277;52.672;6.984;2023-07-24T12:51:30;22.90;99.90
57434;DHT22;43277;52.672;6.984;2023-07-24T12:53:56;22.90;99.90
57434;DHT22;43277;52.672;6.984;2023-07-24T12:56:21;22.70;99.90
57434;DHT22;43277;52.672;6.984;2023-07-24T12:58:47;22.70;99.90
57434;DHT22;43277;52.672;6.984;2023-07-24T13:01:13;22.60;99.90
57434;DHT22;43277;52.672;6.984;2023-07-24T13:03:38;22.70;99.90
57434;DHT22;43277;52.672;6.984;2023-07-24T13:06:04;22.90;99.90
57434;DHT22;43277;52.672;6.984;2023-07-24T13:08:29;23.10;99.90
57434;DHT22;43277;52.672;6.984;2023-07-24T13:10:55;23.20;99.50
57434;DHT22;43277;52.672;6.984;2023-07-24T13:13:21;23.40;98.80
57434;DHT22;43277;52.672;6.984;2023-07-24T13:15:46;23.40;98.60
57434;DHT22;43277;52.672;6.984;2023-07-24T13:18:12;23.50;98.00
57434;DHT22;43277;52.672;6.984;2023-07-24T13:20:40;23.40;98.50
57434;DHT22;43277;52.672;6.984;2023-07-24T13:23:06;23.50;98.30
57434;DHT22;43277;52.672;6.984;2023-07-24T13:25:31;23.40;99.60
57434;DHT22;43277;52.672;6.984;2023-07-24T13:27:57;23.60;98.20
57434;DHT22;43277;52.672;6.984;2023-07-24T13:30:23;23.90;99.30
57434;DHT22;43277;52.672;6.984;2023-07-24T13:32:48;24.20;99.50
57434;DHT22;43277;52.672;6.984;2023-07-24T13:35:14;24.50;97.50
57434;DHT22;43277;52.672;6.984;2023-07-24T13:37:40;24.70;98.00
57434;DHT22;43277;52.672;6.984;2023-07-24T13:40:07;24.90;96.30
57434;DHT22;43277;52.672;6.984;2023-07-24T13:42:32;25.10;95.90
57434;DHT22;43277;52.672;6.984;2023-07-24T13:44:58;25.30;95.60
57434;DHT22;43277;52.672;6.984;2023-07-24T13:47:24;25.20;95.00
57434;DHT22;43277;52.672;6.984;2023-07-24T13:49:49;25.30;94.70
57434;DHT22;43277;52.672;6.984;2023-07-24T13:52:15;25.20;93.70
57434;DHT22;43277;52.672;6.984;2023-07-24T13:54:40;25.00;94.40
57434;DHT22;43277;52.672;6.984;2023-07-24T13:57:06;24.90;94.40
57434;DHT22;43277;52.672;6.984;2023-07-24T13:59:35;24.70;95.00
57434;DHT22;43277;52.672;6.984;2023-07-24T14:02:01;24.50;96.10
57434;DHT22;43277;52.672;6.984;2023-07-24T14:04:27;24.50;96.10
57434;DHT22;43277;52.672;6.984;2023-07-24T14:06:52;24.50;96.10
57434;DHT22;43277;52.672;6.984;2023-07-24T14:09:18;24.40;96.10
57434;DHT22;43277;52.672;6.984;2023-07-24T14:11:43;24.30;96.60
57434;DHT22;43277;52.672;6.984;2023-07-24T14:14:09;24.30;96.40
57434;DHT22;43277;52.672;6.984;2023-07-24T14:16:34;23.90;96.50
57434;DHT22;43277;52.672;6.984;2023-07-24T14:19:00;23.30;96.90
57434;DHT22;43277;52.672;6.984;2023-07-24T14:21:26;22.70;96.80
57434;DHT22;43277;52.672;6.984;2023-07-24T14:23:51;22.20;97.60
57434;DHT22;43277;52.672;6.984;2023-07-24T14:26:17;21.60;99.00
57434;DHT22;43277;52.672;6.984;2023-07-24T14:28:42;21.00;99.90
57434;DHT22;43277;52.672;6.984;2023-07-24T14:31:08;20.60;99.90
57434;DHT22;43277;52.672;6.984;2023-07-24T14:33:34;20.30;99.90
57434;DHT22;43277;52.672;6.984;2023-07-24T14:35:59;19.90;99.90
57434;DHT22;43277;52.672;6.984;2023-07-24T14:38:25;19.50;99.90
57434;DHT22;43277;52.672;6.984;2023-07-24T14:40:50;19.20;99.90
57434;DHT22;43277;52.672;6.984;2023-07-24T14:43:16;18.90;99.90
57434;DHT22;43277;52.672;6.984;2023-07-24T14:45:42;18.80;99.90
57434;DHT22;43277;52.672;6.984;2023-07-24T14:48:07;18.80;99.90
57434;DHT22;43277;52.672;6.984;2023-07-24T14:50:34;18.90;99.90
57434;DHT22;43277;52.672;6.984;2023-07-24T14:53:00;19.00;99.90
57434;DHT22;43277;52.672;6.984;2023-07-24T14:55:25;19.00;99.90
57434;DHT22;43277;52.672;6.984;2023-07-24T14:57:51;19.00;99.90
57434;DHT22;43277;52.672;6.984;2023-07-24T15:00:17;19.10;99.90
57434;DHT22;43277;52.672;6.984;2023-07-24T15:02:43;19.10;99.90
57434;DHT22;43277;52.672;6.984;2023-07-24T15:05:08;19.10;99.90
57434;DHT22;43277;52.672;6.984;2023-07-24T15:07:34;19.10;99.90
57434;DHT22;43277;52.672;6.984;2023-07-24T15:10:00;19.20;99.90
57434;DHT22;43277;52.672;6.984;2023-07-24T15:12:25;19.20;99.90
57434;DHT22;43277;52.672;6.984;2023-07-24T15:14:51;19.10;99.90
57434;DHT22;43277;52.672;6.984;2023-07-24T15:17:16;19.10;99.90
57434;DHT22;43277;52.672;6.984;2023-07-24T15:19:43;19.10;99.90
57434;DHT22;43277;52.672;6.984;2023-07-24T15:22:09;19.10;99.90
57434;DHT22;43277;52.672;6.984;2023-07-24T15:24:35;19.10;99.90
57434;DHT22;43277;52.672;6.984;2023-07-24T15:27:00;19.10;99.90
57434;DHT22;43277;52.672;6.984;2023-07-24T15:29:33;19.10;99.90
57434;DHT22;43277;52.672;6.984;2023-07-24T15:31:59;19.10;99.90
57434;DHT22;43277;52.672;6.984;2023-07-24T15:34:24;18.90;99.90